sensor_id;sensor_type;location;lat;lon;timestamp;temperature;humidity
5508;DHT22;2776;51.046;6.772;2023-05-10T00:01:51;14.70;99.90
5508;DHT22;2776;51.046;6.772;2023-05-10T00:04:18;14.70;99.90
5508;DHT22;2776;51.046;6.772;2023-05-10T00:06:45;14.60;99.90
5508;DHT22;2776;51.046;6.772;2023-05-10T00:09:12;14.60;99.90
5508;DHT22;2776;51.046;6.772;2023-05-10T00:11:38;14.70;99.90
5508;DHT22;2776;51.046;6.772;2023-05-10T00:14:05;14.70;99.90
5508;DHT22;2776;51.046;6.772;2023-05-10T00:16:32;14.70;99.90
5508;DHT22;2776;51.046;6.772;2023-05-10T00:19:00;14.70;99.90
5508;DHT22;2776;51.046;6.772;2023-05-10T00:21:27;14.70;99.90
5508;DHT22;2776;51.046;6.772;2023-05-10T00:23:53;14.70;99.90
5508;DHT22;2776;51.046;6.772;2023-05-10T00:26:20;14.70;99.90
5508;DHT22;2776;51.046;6.772;2023-05-10T00:28:47;14.70;99.90
5508;DHT22;2776;51.046;6.772;2023-05-10T00:31:13;14.70;99.90
5508;DHT22;2776;51.046;6.772;2023-05-10T00:33:40;14.80;99.90
5508;DHT22;2776;51.046;6.772;2023-05-10T00:36:09;14.80;99.90
5508;DHT22;2776;51.046;6.772;2023-05-10T00:38:35;14.70;99.90
5508;DHT22;2776;51.046;6.772;2023-05-10T00:41:02;14.70;99.90
5508;DHT22;2776;51.046;6.772;2023-05-10T00:43:29;14.70;99.90
5508;DHT22;2776;51.046;6.772;2023-05-10T00:45:56;14.70;99.90
5508;DHT22;2776;51.046;6.772;2023-05-10T00:48:23;14.70;99.90
5508;DHT22;2776;51.046;6.772;2023-05-10T00:50:50;14.80;99.90
5508;DHT22;2776;51.046;6.772;2023-05-10T00:53:18;14.80;99.90
5508;DHT22;2776;51.046;6.772;2023-05-10T00:55:45;14.80;99.90
5508;DHT22;2776;51.046;6.772;2023-05-10T00:58:12;14.80;99.90
5508;DHT22;2776;51.046;6.772;2023-05-10T01:00:41;14.80;99.90
5508;DHT22;2776;51.046;6.772;2023-05-10T01:03:09;14.80;99.90
5508;DHT22;2776;51.046;6.772;2023-05-10T01:05:36;14.70;99.90
5508;DHT22;2776;51.046;6.772;2023-05-10T01:08:03;14.70;99.90
5508;DHT22;2776;51.046;6.772;2023-05-10T01:10:31;14.70;99.90
5508;DHT22;2776;51.046;6.772;2023-05-10T01:12:59;14.70;99.90
5508;DHT22;2776;51.046;6.772;2023-05-10T01:15:26;14.60;99.90
5508;DHT22;2776;51.046;6.772;2023-05-10T01:17:53;14.60;99.90
5508;DHT22;2776;51.046;6.772;2023-05-10T01:20:20;14.60;99.90
5508;DHT22;2776;51.046;6.772;2023-05-10T01:23:05;14.50;99.90
5508;DHT22;2776;51.046;6.772;2023-05-10T01:29:11;14.50;99.90
5508;DHT22;2776;51.046;6.772;2023-05-10T01:31:58;14.50;99.90
5508;DHT22;2776;51.046;6.772;2023-05-10T01:34:35;14.50;99.90
5508;DHT22;2776;51.046;6.772;2023-05-10T01:37:11;14.50;99.90
5508;DHT22;2776;51.046;6.772;2023-05-10T01:39:45;14.40;99.90
5508;DHT22;2776;51.046;6.772;2023-05-10T01:42:16;14.50;99.90
5508;DHT22;2776;51.046;6.772;2023-05-10T01:44:48;14.40;99.90
5508;DHT22;2776;51.046;6.772;2023-05-10T01:47:20;14.40;99.90
5508;DHT22;2776;51.046;6.772;2023-05-10T01:49:50;14.40;99.90
5508;DHT22;2776;51.046;6.772;2023-05-10T01:52:22;14.40;99.90
5508;DHT22;2776;51.046;6.772;2023-05-10T01:54:55;14.40;99.90
5508;DHT22;2776;51.046;6.772;2023-05-10T01:57:26;14.40;99.90
5508;DHT22;2776;51.046;6.772;2023-05-10T01:59:55;14.40;99.90
5508;DHT22;2776;51.046;6.772;2023-05-10T02:02:25;14.40;99.90
5508;DHT22;2776;51.046;6.772;2023-05-10T02:04:53;14.40;99.90
5508;DHT22;2776;51.046;6.772;2023-05-10T02:07:21;14.50;99.90
5508;DHT22;2776;51.046;6.772;2023-05-10T02:09:49;14.50;99.90
5508;DHT22;2776;51.046;6.772;2023-05-10T02:12:18;14.40;99.90
5508;DHT22;2776;51.046;6.772;2023-05-10T02:14:46;14.40;99.90
5508;DHT22;2776;51.046;6.772;2023-05-10T02:17:14;14.30;99.90
5508;DHT22;2776;51.046;6.772;2023-05-10T02:19:43;14.40;99.90
5508;DHT22;2776;51.046;6.772;2023-05-10T02:22:11;14.30;99.90
5508;DHT22;2776;51.046;6.772;2023-05-10T02:24:39;14.30;99.90
5508;DHT22;2776;51.046;6.772;2023-05-10T02:27:07;14.30;99.90
5508;DHT22;2776;51.046;6.772;2023-05-10T02:29:36;14.30;99.90
5508;DHT22;2776;51.046;6.772;2023-05-10T02:32:03;14.30;99.90
5508;DHT22;2776;51.046;6.772;2023-05-10T02:34:31;14.40;99.90
5508;DHT22;2776;51.046;6.772;2023-05-10T02:36:59;14.40;99.90
5508;DHT22;2776;51.046;6.772;2023-05-10T02:39:29;14.40;99.90
5508;DHT22;2776;51.046;6.772;2023-05-10T02:41:57;14.40;99.90
5508;DHT22;2776;51.046;6.772;2023-05-10T02:44:25;14.40;99.90
5508;DHT22;2776;51.046;6.772;2023-05-10T02:46:53;14.40;99.90
5508;DHT22;2776;51.046;6.772;2023-05-10T02:49:21;14.50;99.90
5508;DHT22;2776;51.046;6.772;2023-05-10T02:51:51;14.50;99.90
5508;DHT22;2776;51.046;6.772;2023-05-10T02:54:27;14.50;99.90
5508;DHT22;2776;51.046;6.772;2023-05-10T02:56:57;14.60;99.90
5508;DHT22;2776;51.046;6.772;2023-05-10T02:59:24;14.60;99.90
5508;DHT22;2776;51.046;6.772;2023-05-10T03:01:51;14.60;99.90
5508;DHT22;2776;51.046;6.772;2023-05-10T03:04:18;14.50;99.90
5508;DHT22;2776;51.046;6.772;2023-05-10T03:06:45;14.40;99.90
5508;DHT22;2776;51.046;6.772;2023-05-10T03:09:12;14.40;99.90
5508;DHT22;2776;51.046;6.772;2023-05-10T03:11:50;14.40;99.90
5508;DHT22;2776;51.046;6.772;2023-05-10T03:14:29;14.40;99.90
5508;DHT22;2776;51.046;6.772;2023-05-10T03:17:04;14.40;99.90
5508;DHT22;2776;51.046;6.772;2023-05-10T03:19:42;14.50;99.90
5508;DHT22;2776;51.046;6.772;2023-05-10T03:22:10;14.50;99.90
5508;DHT22;2776;51.046;6.772;2023-05-10T03:24:39;14.50;99.90
5508;DHT22;2776;51.046;6.772;2023-05-10T03:27:09;14.50;99.90
5508;DHT22;2776;51.046;6.772;2023-05-10T03:29:37;14.50;99.90
5508;DHT22;2776;51.046;6.772;2023-05-10T03:32:05;14.40;99.90
5508;DHT22;2776;51.046;6.772;2023-05-10T03:34:32;14.40;99.90
5508;DHT22;2776;51.046;6.772;2023-05-10T03:36:59;14.40;99.90
5508;DHT22;2776;51.046;6.772;2023-05-10T03:39:25;14.30;99.90
5508;DHT22;2776;51.046;6.772;2023-05-10T03:41:52;14.40;99.90
5508;DHT22;2776;51.046;6.772;2023-05-10T03:44:20;14.30;99.90
5508;DHT22;2776;51.046;6.772;2023-05-10T03:46:46;14.30;99.90
5508;DHT22;2776;51.046;6.772;2023-05-10T03:49:14;14.30;99.90
5508;DHT22;2776;51.046;6.772;2023-05-10T03:51:40;14.30;99.90
5508;DHT22;2776;51.046;6.772;2023-05-10T03:54:07;14.30;99.90
5508;DHT22;2776;51.046;6.772;2023-05-10T03:56:34;14.30;99.90
5508;DHT22;2776;51.046;6.772;2023-05-10T03:59:00;14.30;99.90
5508;DHT22;2776;51.046;6.772;2023-05-10T04:01:33;14.20;99.90
5508;DHT22;2776;51.046;6.772;2023-05-10T04:04:00;14.20;99.90
5508;DHT22;2776;51.046;6.772;2023-05-10T04:06:27;14.20;99.90
5508;DHT22;2776;51.046;6.772;2023-05-10T04:08:53;14.30;99.90
5508;DHT22;2776;51.046;6.772;2023-05-10T04:11:20;14.30;99.90
5508;DHT22;2776;51.046;6.772;2023-05-10T04:13:48;14.30;99.90
5508;DHT22;2776;51.046;6.772;2023-05-10T04:16:14;14.30;99.90
5508;DHT22;2776;51.046;6.772;2023-05-10T04:18:42;14.40;99.90
5508;DHT22;2776;51.046;6.772;2023-05-10T04:21:11;14.40;99.90
5508;DHT22;2776;51.046;6.772;2023-05-10T04:23:39;14.30;99.90
5508;DHT22;2776;51.046;6.772;2023-05-10T04:26:05;14.30;99.90
5508;DHT22;2776;51.046;6.772;2023-05-10T04:28:32;14.20;99.90
5508;DHT22;2776;51.046;6.772;2023-05-10T04:31:02;14.10;99.90
5508;DHT22;2776;51.046;6.772;2023-05-10T04:33:29;14.10;99.90
5508;DHT22;2776;51.046;6.772;2023-05-10T04:35:57;14.10;99.90
5508;DHT22;2776;51.046;6.772;2023-05-10T04:38:24;14.10;99.90
5508;DHT22;2776;51.046;6.772;2023-05-10T04:40:51;14.10;99.90
5508;DHT22;2776;51.046;6.772;2023-05-10T04:43:18;14.10;99.90
5508;DHT22;2776;51.046;6.772;2023-05-10T04:45:44;14.10;99.90
5508;DHT22;2776;51.046;6.772;2023-05-10T04:48:11;14.00;99.90
5508;DHT22;2776;51.046;6.772;2023-05-10T04:50:39;14.10;99.90
5508;DHT22;2776;51.046;6.772;2023-05-10T04:53:07;14.00;99.90
5508;DHT22;2776;51.046;6.772;2023-05-10T04:55:34;14.00;99.90
5508;DHT22;2776;51.046;6.772;2023-05-10T04:58:00;14.00;99.90
5508;DHT22;2776;51.046;6.772;2023-05-10T05:00:28;14.10;99.90
5508;DHT22;2776;51.046;6.772;2023-05-10T05:02:55;14.00;99.90
5508;DHT22;2776;51.046;6.772;2023-05-10T05:05:21;14.10;99.90
5508;DHT22;2776;51.046;6.772;2023-05-10T05:07:48;14.00;99.90
5508;DHT22;2776;51.046;6.772;2023-05-10T05:10:16;14.10;99.90
5508;DHT22;2776;51.046;6.772;2023-05-10T05:12:43;14.20;99.90
5508;DHT22;2776;51.046;6.772;2023-05-10T05:15:10;14.10;99.90
5508;DHT22;2776;51.046;6.772;2023-05-10T05:17:37;14.20;99.90
5508;DHT22;2776;51.046;6.772;2023-05-10T05:20:05;14.30;99.90
5508;DHT22;2776;51.046;6.772;2023-05-10T05:22:32;14.30;99.90
5508;DHT22;2776;51.046;6.772;2023-05-10T05:24:58;14.40;99.90
5508;DHT22;2776;51.046;6.772;2023-05-10T05:27:27;14.30;99.90
5508;DHT22;2776;51.046;6.772;2023-05-10T05:29:54;14.30;99.90
5508;DHT22;2776;51.046;6.772;2023-05-10T05:32:21;14.30;99.90
5508;DHT22;2776;51.046;6.772;2023-05-10T05:34:48;14.20;99.90
5508;DHT22;2776;51.046;6.772;2023-05-10T05:37:15;14.10;99.90
5508;DHT22;2776;51.046;6.772;2023-05-10T05:39:42;14.10;99.90
5508;DHT22;2776;51.046;6.772;2023-05-10T05:42:09;14.10;99.90
5508;DHT22;2776;51.046;6.772;2023-05-10T05:44:37;14.10;99.90
5508;DHT22;2776;51.046;6.772;2023-05-10T05:47:05;14.20;99.90
5508;DHT22;2776;51.046;6.772;2023-05-10T05:49:32;14.30;99.90
5508;DHT22;2776;51.046;6.772;2023-05-10T05:51:59;14.40;99.90
5508;DHT22;2776;51.046;6.772;2023-05-10T05:54:26;14.40;99.90
5508;DHT22;2776;51.046;6.772;2023-05-10T05:56:54;14.30;99.90
5508;DHT22;2776;51.046;6.772;2023-05-10T05:59:22;14.30;99.90
5508;DHT22;2776;51.046;6.772;2023-05-10T06:01:50;14.40;99.90
5508;DHT22;2776;51.046;6.772;2023-05-10T06:04:17;14.30;99.90
5508;DHT22;2776;51.046;6.772;2023-05-10T06:06:44;14.20;99.90
5508;DHT22;2776;51.046;6.772;2023-05-10T06:09:11;14.30;99.90
5508;DHT22;2776;51.046;6.772;2023-05-10T06:11:37;14.30;99.90
5508;DHT22;2776;51.046;6.772;2023-05-10T06:14:04;14.30;99.90
5508;DHT22;2776;51.046;6.772;2023-05-10T06:16:32;14.30;99.90
5508;DHT22;2776;51.046;6.772;2023-05-10T06:19:00;14.20;99.90
5508;DHT22;2776;51.046;6.772;2023-05-10T06:21:27;14.30;99.90
5508;DHT22;2776;51.046;6.772;2023-05-10T06:23:54;14.40;99.90
5508;DHT22;2776;51.046;6.772;2023-05-10T06:26:20;14.40;99.90
5508;DHT22;2776;51.046;6.772;2023-05-10T06:28:47;14.50;99.90
5508;DHT22;2776;51.046;6.772;2023-05-10T06:31:14;14.50;99.90
5508;DHT22;2776;51.046;6.772;2023-05-10T06:33:41;14.50;99.90
5508;DHT22;2776;51.046;6.772;2023-05-10T06:36:09;14.40;99.90
5508;DHT22;2776;51.046;6.772;2023-05-10T06:38:36;14.40;99.90
5508;DHT22;2776;51.046;6.772;2023-05-10T06:41:03;14.50;99.90
5508;DHT22;2776;51.046;6.772;2023-05-10T06:43:29;14.50;99.90
5508;DHT22;2776;51.046;6.772;2023-05-10T06:45:56;14.50;99.90
5508;DHT22;2776;51.046;6.772;2023-05-10T06:48:23;14.60;99.90
5508;DHT22;2776;51.046;6.772;2023-05-10T06:50:50;14.60;99.90
5508;DHT22;2776;51.046;6.772;2023-05-10T06:53:18;14.80;99.90
5508;DHT22;2776;51.046;6.772;2023-05-10T06:55:44;14.80;99.90
5508;DHT22;2776;51.046;6.772;2023-05-10T06:58:11;15.00;99.90
5508;DHT22;2776;51.046;6.772;2023-05-10T07:00:38;15.10;99.90
5508;DHT22;2776;51.046;6.772;2023-05-10T07:03:06;15.20;99.90
5508;DHT22;2776;51.046;6.772;2023-05-10T07:05:32;15.10;99.90
5508;DHT22;2776;51.046;6.772;2023-05-10T07:07:59;15.20;99.90
5508;DHT22;2776;51.046;6.772;2023-05-10T07:10:27;15.20;99.90
5508;DHT22;2776;51.046;6.772;2023-05-10T07:12:55;15.20;99.90
5508;DHT22;2776;51.046;6.772;2023-05-10T07:15:22;15.30;99.90
5508;DHT22;2776;51.046;6.772;2023-05-10T07:17:48;15.20;99.90
5508;DHT22;2776;51.046;6.772;2023-05-10T07:20:17;15.10;99.90
5508;DHT22;2776;51.046;6.772;2023-05-10T07:22:44;15.10;99.90
5508;DHT22;2776;51.046;6.772;2023-05-10T07:25:10;15.10;99.90
5508;DHT22;2776;51.046;6.772;2023-05-10T07:27:38;15.00;99.90
5508;DHT22;2776;51.046;6.772;2023-05-10T07:30:06;15.00;99.90
5508;DHT22;2776;51.046;6.772;2023-05-10T07:32:33;15.00;99.90
5508;DHT22;2776;51.046;6.772;2023-05-10T07:35:00;14.90;99.90
5508;DHT22;2776;51.046;6.772;2023-05-10T07:37:26;15.00;99.90
5508;DHT22;2776;51.046;6.772;2023-05-10T07:39:53;15.10;99.90
5508;DHT22;2776;51.046;6.772;2023-05-10T07:42:20;15.10;99.90
5508;DHT22;2776;51.046;6.772;2023-05-10T07:44:48;15.30;99.90
5508;DHT22;2776;51.046;6.772;2023-05-10T07:47:15;15.40;99.90
5508;DHT22;2776;51.046;6.772;2023-05-10T07:49:41;15.50;99.90
5508;DHT22;2776;51.046;6.772;2023-05-10T07:52:08;15.70;99.90
5508;DHT22;2776;51.046;6.772;2023-05-10T07:54:36;15.80;99.90
5508;DHT22;2776;51.046;6.772;2023-05-10T07:57:03;15.90;99.90
5508;DHT22;2776;51.046;6.772;2023-05-10T07:59:30;15.90;99.90
5508;DHT22;2776;51.046;6.772;2023-05-10T08:01:58;16.00;99.90
5508;DHT22;2776;51.046;6.772;2023-05-10T08:04:26;16.00;99.90
5508;DHT22;2776;51.046;6.772;2023-05-10T08:06:52;16.10;99.90
5508;DHT22;2776;51.046;6.772;2023-05-10T08:09:19;16.10;99.90
5508;DHT22;2776;51.046;6.772;2023-05-10T08:11:49;16.10;99.90
5508;DHT22;2776;51.046;6.772;2023-05-10T08:14:16;16.10;99.90
5508;DHT22;2776;51.046;6.772;2023-05-10T08:16:42;16.10;99.90
5508;DHT22;2776;51.046;6.772;2023-05-10T08:19:10;16.20;99.90
5508;DHT22;2776;51.046;6.772;2023-05-10T08:21:37;16.10;99.90
5508;DHT22;2776;51.046;6.772;2023-05-10T08:24:06;15.90;99.90
5508;DHT22;2776;51.046;6.772;2023-05-10T08:26:33;16.00;99.90
5508;DHT22;2776;51.046;6.772;2023-05-10T08:28:59;16.10;99.90
5508;DHT22;2776;51.046;6.772;2023-05-10T08:31:26;16.20;99.90
5508;DHT22;2776;51.046;6.772;2023-05-10T08:33:53;16.10;99.90
5508;DHT22;2776;51.046;6.772;2023-05-10T08:36:21;16.10;99.90
5508;DHT22;2776;51.046;6.772;2023-05-10T08:38:50;16.20;99.90
5508;DHT22;2776;51.046;6.772;2023-05-10T08:41:18;16.10;99.90
5508;DHT22;2776;51.046;6.772;2023-05-10T08:43:46;16.20;99.90
5508;DHT22;2776;51.046;6.772;2023-05-10T08:46:16;16.30;99.90
5508;DHT22;2776;51.046;6.772;2023-05-10T08:48:43;16.30;99.90
5508;DHT22;2776;51.046;6.772;2023-05-10T08:51:14;16.20;99.90
5508;DHT22;2776;51.046;6.772;2023-05-10T08:53:44;16.30;99.90
5508;DHT22;2776;51.046;6.772;2023-05-10T08:56:11;16.20;99.90
5508;DHT22;2776;51.046;6.772;2023-05-10T08:58:38;16.10;99.90
5508;DHT22;2776;51.046;6.772;2023-05-10T09:01:05;16.10;99.90
5508;DHT22;2776;51.046;6.772;2023-05-10T09:03:32;16.10;99.90
5508;DHT22;2776;51.046;6.772;2023-05-10T09:05:58;15.90;99.90
5508;DHT22;2776;51.046;6.772;2023-05-10T09:08:26;15.70;99.90
5508;DHT22;2776;51.046;6.772;2023-05-10T09:10:55;15.80;99.90
5508;DHT22;2776;51.046;6.772;2023-05-10T09:13:22;15.80;99.90
5508;DHT22;2776;51.046;6.772;2023-05-10T09:15:50;15.70;99.90
5508;DHT22;2776;51.046;6.772;2023-05-10T09:18:19;15.80;99.90
5508;DHT22;2776;51.046;6.772;2023-05-10T09:20:45;15.70;99.90
5508;DHT22;2776;51.046;6.772;2023-05-10T09:23:12;15.60;99.90
5508;DHT22;2776;51.046;6.772;2023-05-10T09:25:41;15.40;99.90
5508;DHT22;2776;51.046;6.772;2023-05-10T09:28:09;15.40;99.90
5508;DHT22;2776;51.046;6.772;2023-05-10T09:30:36;15.30;99.90
5508;DHT22;2776;51.046;6.772;2023-05-10T09:33:03;15.30;99.90
5508;DHT22;2776;51.046;6.772;2023-05-10T09:35:31;15.40;99.90
5508;DHT22;2776;51.046;6.772;2023-05-10T09:38:00;15.60;99.90
5508;DHT22;2776;51.046;6.772;2023-05-10T09:40:29;15.60;99.90
5508;DHT22;2776;51.046;6.772;2023-05-10T09:42:57;15.90;99.90
5508;DHT22;2776;51.046;6.772;2023-05-10T09:45:26;16.10;99.90
5508;DHT22;2776;51.046;6.772;2023-05-10T09:47:53;16.20;99.90
5508;DHT22;2776;51.046;6.772;2023-05-10T09:50:21;16.50;99.90
5508;DHT22;2776;51.046;6.772;2023-05-10T09:52:49;16.80;99.90
5508;DHT22;2776;51.046;6.772;2023-05-10T09:55:19;16.90;99.90
5508;DHT22;2776;51.046;6.772;2023-05-10T09:57:47;16.90;99.90
5508;DHT22;2776;51.046;6.772;2023-05-10T10:00:18;16.90;99.90
5508;DHT22;2776;51.046;6.772;2023-05-10T10:02:48;17.20;99.90
5508;DHT22;2776;51.046;6.772;2023-05-10T10:05:20;17.50;99.90
5508;DHT22;2776;51.046;6.772;2023-05-10T10:07:47;17.70;99.90
5508;DHT22;2776;51.046;6.772;2023-05-10T10:10:15;18.00;99.90
5508;DHT22;2776;51.046;6.772;2023-05-10T10:12:42;18.30;99.90
5508;DHT22;2776;51.046;6.772;2023-05-10T10:15:10;18.40;99.90
5508;DHT22;2776;51.046;6.772;2023-05-10T10:17:37;18.40;99.90
5508;DHT22;2776;51.046;6.772;2023-05-10T10:20:07;18.50;99.90
5508;DHT22;2776;51.046;6.772;2023-05-10T10:22:35;18.40;99.90
5508;DHT22;2776;51.046;6.772;2023-05-10T10:25:03;18.20;99.90
5508;DHT22;2776;51.046;6.772;2023-05-10T10:27:40;18.00;99.90
5508;DHT22;2776;51.046;6.772;2023-05-10T10:30:16;17.90;99.90
5508;DHT22;2776;51.046;6.772;2023-05-10T10:35:38;17.80;99.90
5508;DHT22;2776;51.046;6.772;2023-05-10T10:38:08;17.60;99.90
5508;DHT22;2776;51.046;6.772;2023-05-10T10:40:35;17.60;99.90
5508;DHT22;2776;51.046;6.772;2023-05-10T10:43:22;17.70;99.90
5508;DHT22;2776;51.046;6.772;2023-05-10T10:46:11;17.70;99.90
5508;DHT22;2776;51.046;6.772;2023-05-10T10:48:39;17.60;99.90
5508;DHT22;2776;51.046;6.772;2023-05-10T10:51:07;17.90;99.90
5508;DHT22;2776;51.046;6.772;2023-05-10T10:53:34;18.20;99.90
5508;DHT22;2776;51.046;6.772;2023-05-10T10:56:08;18.40;99.90
5508;DHT22;2776;51.046;6.772;2023-05-10T10:58:36;18.60;99.90
5508;DHT22;2776;51.046;6.772;2023-05-10T11:01:11;18.80;99.90
5508;DHT22;2776;51.046;6.772;2023-05-10T11:03:38;18.80;99.90
5508;DHT22;2776;51.046;6.772;2023-05-10T11:06:06;18.30;99.90
5508;DHT22;2776;51.046;6.772;2023-05-10T11:08:41;18.30;99.90
5508;DHT22;2776;51.046;6.772;2023-05-10T11:11:08;18.10;99.90
5508;DHT22;2776;51.046;6.772;2023-05-10T11:13:38;17.80;99.90
5508;DHT22;2776;51.046;6.772;2023-05-10T11:16:16;17.50;99.90
5508;DHT22;2776;51.046;6.772;2023-05-10T11:19:08;17.50;99.90
5508;DHT22;2776;51.046;6.772;2023-05-10T11:21:45;17.30;99.90
5508;DHT22;2776;51.046;6.772;2023-05-10T11:24:14;17.30;99.90
5508;DHT22;2776;51.046;6.772;2023-05-10T11:26:41;17.30;99.90
5508;DHT22;2776;51.046;6.772;2023-05-10T11:29:08;17.20;99.90
5508;DHT22;2776;51.046;6.772;2023-05-10T11:31:35;17.10;99.90
5508;DHT22;2776;51.046;6.772;2023-05-10T11:34:09;17.20;99.90
5508;DHT22;2776;51.046;6.772;2023-05-10T11:36:37;17.40;99.90
5508;DHT22;2776;51.046;6.772;2023-05-10T11:39:04;17.50;99.90
5508;DHT22;2776;51.046;6.772;2023-05-10T11:41:31;17.60;99.90
5508;DHT22;2776;51.046;6.772;2023-05-10T11:43:58;17.70;99.90
5508;DHT22;2776;51.046;6.772;2023-05-10T11:46:26;17.90;99.90
5508;DHT22;2776;51.046;6.772;2023-05-10T11:48:59;17.90;99.90
5508;DHT22;2776;51.046;6.772;2023-05-10T11:51:27;18.00;99.90
5508;DHT22;2776;51.046;6.772;2023-05-10T11:53:56;18.30;99.90
5508;DHT22;2776;51.046;6.772;2023-05-10T11:56:23;18.50;99.90
5508;DHT22;2776;51.046;6.772;2023-05-10T11:58:55;18.70;99.90
5508;DHT22;2776;51.046;6.772;2023-05-10T12:01:22;18.90;99.90
5508;DHT22;2776;51.046;6.772;2023-05-10T12:03:50;19.10;99.90
5508;DHT22;2776;51.046;6.772;2023-05-10T12:06:19;19.10;99.90
5508;DHT22;2776;51.046;6.772;2023-05-10T12:08:48;19.50;99.90
5508;DHT22;2776;51.046;6.772;2023-05-10T12:11:19;19.70;99.90
5508;DHT22;2776;51.046;6.772;2023-05-10T12:13:47;19.80;99.90
5508;DHT22;2776;51.046;6.772;2023-05-10T12:16:16;20.10;99.90
5508;DHT22;2776;51.046;6.772;2023-05-10T12:18:43;20.40;99.90
5508;DHT22;2776;51.046;6.772;2023-05-10T12:21:11;20.50;99.90
5508;DHT22;2776;51.046;6.772;2023-05-10T12:23:39;20.60;99.90
5508;DHT22;2776;51.046;6.772;2023-05-10T12:26:05;20.60;99.90
5508;DHT22;2776;51.046;6.772;2023-05-10T12:28:33;20.60;99.90
5508;DHT22;2776;51.046;6.772;2023-05-10T12:31:01;20.70;99.90
5508;DHT22;2776;51.046;6.772;2023-05-10T12:33:35;20.80;99.90
5508;DHT22;2776;51.046;6.772;2023-05-10T12:36:04;20.90;99.90
5508;DHT22;2776;51.046;6.772;2023-05-10T12:38:33;20.80;99.90
5508;DHT22;2776;51.046;6.772;2023-05-10T12:41:01;21.00;99.90
5508;DHT22;2776;51.046;6.772;2023-05-10T12:43:28;20.80;99.90
5508;DHT22;2776;51.046;6.772;2023-05-10T12:45:56;20.80;99.90
5508;DHT22;2776;51.046;6.772;2023-05-10T12:48:24;20.60;99.90
5508;DHT22;2776;51.046;6.772;2023-05-10T12:50:51;20.70;99.90
5508;DHT22;2776;51.046;6.772;2023-05-10T12:53:17;20.70;99.90
5508;DHT22;2776;51.046;6.772;2023-05-10T12:55:44;20.70;99.90
5508;DHT22;2776;51.046;6.772;2023-05-10T12:58:11;20.30;99.90
5508;DHT22;2776;51.046;6.772;2023-05-10T13:00:37;20.20;99.90
5508;DHT22;2776;51.046;6.772;2023-05-10T13:03:06;20.00;99.90
5508;DHT22;2776;51.046;6.772;2023-05-10T13:05:32;19.90;99.90
5508;DHT22;2776;51.046;6.772;2023-05-10T13:07:59;20.10;99.90
5508;DHT22;2776;51.046;6.772;2023-05-10T13:10:26;19.80;99.90
5508;DHT22;2776;51.046;6.772;2023-05-10T13:12:52;19.60;99.90
5508;DHT22;2776;51.046;6.772;2023-05-10T13:15:19;19.70;99.90
5508;DHT22;2776;51.046;6.772;2023-05-10T13:17:46;19.90;99.90
5508;DHT22;2776;51.046;6.772;2023-05-10T13:20:14;20.10;99.90
5508;DHT22;2776;51.046;6.772;2023-05-10T13:22:41;20.40;99.90
5508;DHT22;2776;51.046;6.772;2023-05-10T13:25:08;20.50;99.90
5508;DHT22;2776;51.046;6.772;2023-05-10T13:27:36;20.50;99.90
5508;DHT22;2776;51.046;6.772;2023-05-10T13:30:03;20.30;99.90
5508;DHT22;2776;51.046;6.772;2023-05-10T13:32:30;20.40;99.90
5508;DHT22;2776;51.046;6.772;2023-05-10T13:34:56;20.50;99.90
5508;DHT22;2776;51.046;6.772;2023-05-10T13:37:24;20.40;99.90
5508;DHT22;2776;51.046;6.772;2023-05-10T13:39:51;20.50;99.90
5508;DHT22;2776;51.046;6.772;2023-05-10T13:42:18;20.30;99.90
5508;DHT22;2776;51.046;6.772;2023-05-10T13:44:45;20.40;99.90
5508;DHT22;2776;51.046;6.772;2023-05-10T13:47:11;20.40;99.90
5508;DHT22;2776;51.046;6.772;2023-05-10T13:49:38;20.20;99.90
5508;DHT22;2776;51.046;6.772;2023-05-10T13:52:05;20.10;99.90
5508;DHT22;2776;51.046;6.772;2023-05-10T13:54:33;20.20;99.90
5508;DHT22;2776;51.046;6.772;2023-05-10T13:57:01;20.30;99.90
5508;DHT22;2776;51.046;6.772;2023-05-10T13:59:28;20.20;99.90
5508;DHT22;2776;51.046;6.772;2023-05-10T14:01:56;20.20;99.90
5508;DHT22;2776;51.046;6.772;2023-05-10T14:04:23;20.20;99.90
5508;DHT22;2776;51.046;6.772;2023-05-10T14:06:50;20.40;99.90
5508;DHT22;2776;51.046;6.772;2023-05-10T14:09:18;20.30;99.90
5508;DHT22;2776;51.046;6.772;2023-05-10T14:11:46;20.30;99.90
5508;DHT22;2776;51.046;6.772;2023-05-10T14:14:13;20.20;99.90
5508;DHT22;2776;51.046;6.772;2023-05-10T14:16:42;20.10;99.90
5508;DHT22;2776;51.046;6.772;2023-05-10T14:19:09;20.10;99.90
5508;DHT22;2776;51.046;6.772;2023-05-10T14:21:35;20.10;99.90
5508;DHT22;2776;51.046;6.772;2023-05-10T14:24:02;20.00;99.90
5508;DHT22;2776;51.046;6.772;2023-05-10T14:26:29;19.90;99.90
5508;DHT22;2776;51.046;6.772;2023-05-10T14:28:58;20.10;99.90
5508;DHT22;2776;51.046;6.772;2023-05-10T14:31:25;20.00;99.90
5508;DHT22;2776;51.046;6.772;2023-05-10T14:33:52;20.10;99.90
5508;DHT22;2776;51.046;6.772;2023-05-10T14:36:19;19.90;99.90
5508;DHT22;2776;51.046;6.772;2023-05-10T14:38:45;19.90;99.90
5508;DHT22;2776;51.046;6.772;2023-05-10T14:41:12;20.10;99.90
5508;DHT22;2776;51.046;6.772;2023-05-10T14:43:40;20.20;99.90
5508;DHT22;2776;51.046;6.772;2023-05-10T14:46:08;20.10;99.90
5508;DHT22;2776;51.046;6.772;2023-05-10T14:48:35;20.20;99.90
5508;DHT22;2776;51.046;6.772;2023-05-10T14:51:02;20.30;99.90
5508;DHT22;2776;51.046;6.772;2023-05-10T14:53:29;20.40;99.90
5508;DHT22;2776;51.046;6.772;2023-05-10T14:55:56;20.30;99.90
5508;DHT22;2776;51.046;6.772;2023-05-10T14:58:22;20.30;99.90
5508;DHT22;2776;51.046;6.772;2023-05-10T15:00:49;20.20;99.90
5508;DHT22;2776;51.046;6.772;2023-05-10T15:03:17;20.20;99.90
5508;DHT22;2776;51.046;6.772;2023-05-10T15:05:44;19.90;99.90
5508;DHT22;2776;51.046;6.772;2023-05-10T15:08:11;19.70;99.90
5508;DHT22;2776;51.046;6.772;2023-05-10T15:10:37;19.50;99.90
5508;DHT22;2776;51.046;6.772;2023-05-10T15:13:04;19.50;99.90
5508;DHT22;2776;51.046;6.772;2023-05-10T15:15:31;19.40;99.90
5508;DHT22;2776;51.046;6.772;2023-05-10T15:17:58;19.30;99.90
5508;DHT22;2776;51.046;6.772;2023-05-10T15:20:26;19.20;99.90
5508;DHT22;2776;51.046;6.772;2023-05-10T15:22:52;19.10;99.90
5508;DHT22;2776;51.046;6.772;2023-05-10T15:25:19;18.90;99.90
5508;DHT22;2776;51.046;6.772;2023-05-10T15:27:46;19.00;99.90
5508;DHT22;2776;51.046;6.772;2023-05-10T15:30:13;19.00;99.90
5508;DHT22;2776;51.046;6.772;2023-05-10T15:32:40;18.90;99.90
5508;DHT22;2776;51.046;6.772;2023-05-10T15:35:08;18.90;99.90
5508;DHT22;2776;51.046;6.772;2023-05-10T15:37:36;19.00;99.90
5508;DHT22;2776;51.046;6.772;2023-05-10T15:40:04;19.00;99.90
5508;DHT22;2776;51.046;6.772;2023-05-10T15:42:31;18.80;99.90
5508;DHT22;2776;51.046;6.772;2023-05-10T15:44:58;18.80;99.90
5508;DHT22;2776;51.046;6.772;2023-05-10T15:47:26;18.60;99.90
5508;DHT22;2776;51.046;6.772;2023-05-10T15:49:53;18.50;99.90
5508;DHT22;2776;51.046;6.772;2023-05-10T15:52:20;18.30;99.90
5508;DHT22;2776;51.046;6.772;2023-05-10T15:54:49;18.30;99.90
5508;DHT22;2776;51.046;6.772;2023-05-10T15:57:16;18.40;99.90
5508;DHT22;2776;51.046;6.772;2023-05-10T15:59:43;18.40;99.90
5508;DHT22;2776;51.046;6.772;2023-05-10T16:02:10;18.20;99.90
5508;DHT22;2776;51.046;6.772;2023-05-10T16:04:37;18.30;99.90
5508;DHT22;2776;51.046;6.772;2023-05-10T16:07:03;18.40;99.90
5508;DHT22;2776;51.046;6.772;2023-05-10T16:09:30;18.30;99.90
5508;DHT22;2776;51.046;6.772;2023-05-10T16:11:58;18.30;99.90
5508;DHT22;2776;51.046;6.772;2023-05-10T16:14:25;18.10;99.90